• Join FlightAware (Why Join?)
  • Login
  • US Flag 
01:30PM EDT


 

Airport Tracker/Info


-or-


 

Live Flight TrackerFlight Track Log ✈ EJA370 ✈ 07-May-2013 ✈ KMDW - KHPN

Flight Track Log - Related Links

Times and Time Zones

All times are in EDT time to prevent confusion due to time zone crossing. See the EJA370 flight status page for this flight to view local times or setup timezone preferences in your user account.

Time Position Orientation Groundspeed Altitude Reporting Facility
EDT Latitude Longitude Course Direction KTS MPH feet Rate Location/Type
05:48PM 41.8000 -87.7000 98° East 184 212 2,900  Level Chicago TRACON
05:49PM 41.8000 -87.6167 90° East 218 251 5,000 1,500 Climbing Chicago TRACON
05:49PM 41.8022 -87.6133 48° Northeast 199 229 5,000 420 Level Chicago Center
05:50PM 41.8056 -87.4958 88° East 242 278 5,600 1,440 Climbing Chicago Center
05:51PM 41.7950 -87.3956 98° East 262 302 8,000 2,460 Climbing Chicago Center
05:52PM 41.7839 -87.2928 98° East 277 319 10,700 2,460 Climbing Chicago Center
05:53PM 41.7508 -87.0584 98° East  Level FlightAware Approximate
05:53PM 41.7736 -87.1844 97° East 291 335 13,200  Level Chicago Center
05:54PM 41.7625 -87.0642 97° East 322 371 16,200 2,820 Climbing Chicago Center
05:55PM 41.7639 -86.9281 89° East 361 415 19,100 2,280 Climbing Chicago Center
05:56PM 41.7708 -86.7650 87° East 365 420 21,000 900 Climbing Chicago Center
05:57PM 41.8147 -86.6431 64° Northeast 395 455 21,000 240 Level Chicago Center
05:58PM 41.8556 -86.5047 68° East 400 460 21,500 660 Climbing Chicago Center
05:59PM 41.8750 -86.3297 81° East 396 456 22,400 960 Climbing Chicago Center
06:00PM 41.8864 -86.1789 84° East 406 467 23,600 1,200 Climbing Chicago Center
06:01PM 41.8969 -86.0233 85° East 416 479 25,000 1,200 Climbing Chicago Center
06:03PM 41.8881 -85.8656 94° East 423 487 26,100 1,260 Climbing Chicago Center
06:04PM 41.8581 -85.7103 104° East 428 493 27,700 1,200 Climbing Chicago Center
06:05PM 41.8272 -85.5558 105° East 428 493 28,600 1,320 Climbing Chicago Center
06:06PM 41.7961 -85.3989 105° East 430 495 30,500 1,680 Climbing Chicago Center
06:07PM 41.7633 -85.2419 106° East 430 495 32,100 1,740 Climbing Chicago Center
06:08PM 41.7144 -84.9983 105° East 443 510 34,900 1,140 Climbing Cleveland Center
06:09PM 41.6825 -84.8486 106° East 432 497 35,000  Climbing Cleveland Center
06:10PM 41.6589 -84.6942 102° East 426 490 35,000 240 Level Cleveland Center
06:11PM 41.6392 -84.5428 100° East 420 483 35,500 840 Climbing Cleveland Center
06:12PM 41.6272 -84.4086 97° East 410 472 36,700 1,260 Climbing Cleveland Center
06:13PM 41.6092 -84.2575 99° East 410 472 38,100 1,140 Climbing Cleveland Center
06:14PM 41.5908 -84.1067 99° East 410 472 39,000 420 Climbing Cleveland Center
06:15PM 41.5728 -83.9531 99° East 410 472 39,000  Level Cleveland Center
06:16PM 41.5542 -83.7992 99° East 410 472 39,000  Level Cleveland Center
06:17PM 41.5375 -83.6431 98° East 415 478 39,000  Level Cleveland Center
06:18PM 41.5189 -83.4814 99° East 420 483 39,000  Level Cleveland Center
06:19PM 41.4997 -83.3281 99° East 426 490 39,000  Level Cleveland Center
06:20PM 41.4911 -83.1558 94° East 426 490 39,000  Level Cleveland Center
06:21PM 41.5172 -83.0153 76° East 423 487 39,000  Level Cleveland Center
06:22PM 41.5433 -82.8608 77° East 423 487 39,000  Level Cleveland Center
06:23PM 41.5711 -82.7092 76° East 428 493 39,000  Level Cleveland Center
06:24PM 41.5992 -82.5519 77° East 428 493 39,000  Level Cleveland Center
06:25PM 41.6267 -82.4000 76° East 428 493 39,000  Level Cleveland Center
06:26PM 41.6494 -82.2617 78° East 428 493 39,000  Level Cleveland Center
06:27PM 41.6833 -82.0761 76° East 428 493 39,000  Level Cleveland Center
06:28PM 41.7103 -81.9239 77° East 428 493 39,000  Level Cleveland Center
06:29PM 41.7369 -81.7686 77° East 428 493 39,000  Level Cleveland Center
06:30PM 41.7636 -81.6131 77° East 428 493 39,000  Level Cleveland Center
06:31PM 41.7897 -81.4603 77° East 428 493 39,000  Level Cleveland Center
06:32PM 41.8117 -81.3214 78° East 428 493 39,000  Level Cleveland Center
06:33PM 41.8375 -81.1656 77° East 428 493 39,000  Level Cleveland Center
06:34PM 41.8842 -81.0267 66° East 418 481 39,000  Level Cleveland Center
06:35PM 41.9303 -80.8789 67° East 418 481 39,000  Level Cleveland Center
06:36PM 41.9767 -80.7367 66° East 418 481 39,000  Level Cleveland Center
06:37PM 42.0203 -80.5858 69° East 418 481 39,000  Level Cleveland Center
06:38PM 42.0453 -80.4156 79° East 413 475 39,000  Level Cleveland Center
06:39PM 42.0639 -80.2617 81° East 413 475 39,000  Level Cleveland Center
06:40PM 42.0861 -80.1047 79° East 413 475 39,000  Level Cleveland Center
06:41PM 42.1042 -79.9647 80° East 413 475 39,000  Level Cleveland Center
06:42PM 42.1242 -79.8106 80° East 413 475 39,000  Level Cleveland Center
06:43PM 42.1417 -79.6564 81° East 413 475 39,000  Level Cleveland Center
06:44PM 42.1653 -79.4794 80° East 421 484 39,000  Level Cleveland Center
06:45PM 42.1844 -79.3250 80° East 426 490 39,000  Level Cleveland Center
06:46PM 42.2036 -79.1678 81° East 426 490 39,000  Level Cleveland Center
06:47PM 42.2222 -79.0103 81° East 426 490 39,000  Level Cleveland Center
06:48PM 42.2392 -78.8694 81° East 426 490 39,000  Level Cleveland Center
06:49PM 42.2575 -78.7119 81° East 426 490 39,000  Level Cleveland Center
06:50PM 42.2797 -78.5542 79° East 426 490 39,000  Level Cleveland Center
06:51PM 42.3208 -78.4067 69° East 426 490 39,000 -60 Level Cleveland Center
06:52PM 42.3617 -78.2536 70° East 421 484 38,900 -720 Descending Cleveland Center
06:53PM 42.4003 -78.1061 70° East 421 484 37,600 -1,320 Descending Cleveland Center
06:54PM 42.4386 -77.9553 71° East 421 484 36,300 -1,440 Descending Cleveland Center
06:55PM 42.4722 -77.7822 75° East 421 484 34,800 -1,380 Descending Cleveland Center
06:56PM 42.4806 -77.6214 86° East 426 490 33,600 -600 Descending Cleveland Center
06:58PM 42.4881 -77.2500 88° East 433 498 33,000 -240 Descending Boston Center
06:59PM 42.4886 -77.0867 90° East 433 498 33,000  Level Boston Center
07:00PM 42.4911 -76.9233 89° East 433 498 33,000  Level Boston Center
07:01PM 42.4933 -76.7572 89° East 433 498 33,000  Level Boston Center
07:02PM 42.4953 -76.5942 89° East 440 506 33,000  Level Boston Center
07:03PM 42.4889 -76.4275 93° East 440 506 33,000  Level Boston Center
07:04PM 42.4567 -76.2678 105° East 440 506 33,000 -960 Level Boston Center
07:05PM 42.4281 -76.1281 105° East 434 499 31,100 -1,740 Descending Boston Center
07:06PM 42.3936 -75.9658 106° East 434 499 29,600 -1,680 Descending Boston Center
07:07PM 42.3608 -75.8094 106° East 434 499 27,800 -1,800 Descending Boston Center
07:08PM 42.3278 -75.6531 106° East 434 499 26,000 -1,800 Descending Boston Center
07:09PM 42.2967 -75.4969 105° East 424 488 24,200 -1,800 Descending Boston Center
07:10PM 42.2650 -75.3494 106° East 424 488 22,500 -1,740 Descending Boston Center
07:11PM 42.2353 -75.2108 106° East 408 470 20,800 -1,680 Descending Boston Center
07:12PM 42.2031 -75.0719 107° East 397 457 19,200 -1,440 Descending Boston Center
07:13PM 42.1686 -74.9361 109° East 387 445 18,000 -600 Descending Boston Center
07:14PM 42.1172 -74.8108 119° Southeast 382 440 18,000 -240 Level Boston Center
07:15PM 42.0614 -74.6856 121° Southeast 382 440 17,600 -840 Descending Boston Center
07:16PM 42.0117 -74.5636 119° Southeast 382 440 16,400 -1,320 Descending Boston Center
07:17PM 41.9578 -74.4361 120° Southeast 371 427 15,000 -1,440 Descending Boston Center
07:18PM 41.8947 -74.3367 130° Southeast 358 412 13,600 -1,500 Descending Boston Center
07:19PM 41.8083 -74.2728 151° Southeast 351 404 12,100 -1,380 Descending Boston Center
07:20PM 41.7281 -74.2092 149° Southeast 351 404 10,900 -1,260 Descending Boston Center
07:21PM 41.6558 -74.1572 152° Southeast 321 369 9,600 -1,200 Descending Boston Center
07:22PM 41.5900 -74.1056 150° Southeast 289 333 8,500 -1,140 Descending Boston Center
07:23PM 41.5333 -74.0667 153° Southeast 272 313 7,700 -1,140 Descending New York TRACON
07:24PM 41.4667 -74.0167 151° Southeast 269 310 6,600 -900 Descending New York TRACON
07:25PM 41.4167 -73.9667 143° Southeast 269 310 6,000 -300 Descending New York TRACON
07:26PM 41.3500 -73.9167 151° Southeast 243 280 6,000 -300 Level New York TRACON
07:27PM 41.3000 -73.8833 153° Southeast 232 267 5,500 -960 Descending New York TRACON
07:28PM 41.2333 -73.8333 151° Southeast 214 246 4,100 -1,200 Descending New York TRACON
07:29PM 41.1833 -73.8000 153° Southeast 196 226 3,000 -1,020 Descending New York TRACON
07:30PM 41.1500 -73.7667 143° Southeast 187 215 2,200 -900 Descending New York TRACON
07:31PM 41.1167 -73.7333 143° Southeast 133 153 1,400 -780 Descending New York TRACON
07:32PM 41.0833 -73.7167 159° South 102 117 700 -720 Descending New York TRACON
07:34PM 41.0667 -73.7000 147° Southeast  Level FlightAware Approximate
07:41PM 41.0669 -73.7076 147° Southeast  Level Estimated